Time;durP1;ratioP1;P1;durP2;ratioP2;P2;SDS_P1;SDS_P2;PMS_P1;PMS_P2;Temp;Humidity;BMP_temperature;BMP_pressure;BME280_temperature;BME280_humidity;BME280_pressure;Samples;Min_cycle;Max_cycle;Signal;HPM_P1;HPM_P2
2022/03/28 00:02:22;;;;;;;14.27;12.98;;;;;;;5.05;100.00;102682.63;5177678;28;20069;-82
2022/03/28 00:04:52;;;;;;;14.18;12.80;;;;;;;4.96;100.00;102681.00;5177647;28;20022;-82
2022/03/28 00:07:22;;;;;;;13.95;12.73;;;;;;;4.83;100.00;102667.34;5177533;28;20026;-83
2022/03/28 00:09:53;;;;;;;18.48;13.32;;;;;;;4.82;100.00;102671.88;5177147;28;20057;-83
2022/03/28 00:12:23;;;;;;;12.07;11.10;;;;;;;4.63;100.00;102632.97;5176674;28;20037;-83
2022/03/28 00:14:54;;;;;;;14.85;13.43;;;;;;;4.81;100.00;102674.72;5192102;28;20022;-80
2022/03/28 00:17:24;;;;;;;15.52;13.98;;;;;;;4.68;100.00;102661.88;5177787;28;20097;-81
2022/03/28 00:19:54;;;;;;;16.65;14.80;;;;;;;4.61;100.00;102669.78;5176500;28;20026;-83
2022/03/28 00:22:25;;;;;;;16.20;14.73;;;;;;;4.66;100.00;102663.88;5177372;28;20034;-84
2022/03/28 00:24:56;;;;;;;13.85;12.77;;;;;;;4.61;100.00;102645.69;5177191;28;20034;-82
2022/03/28 00:27:26;;;;;;;13.73;12.38;;;;;;;4.55;100.00;102624.97;5177899;28;20442;-80
2022/03/28 00:29:57;;;;;;;15.05;13.68;;;;;;;4.56;100.00;102623.13;5177130;28;20495;-80
2022/03/28 00:32:27;;;;;;;15.07;13.95;;;;;;;4.70;100.00;102660.69;5177657;28;20079;-81
2022/03/28 00:34:58;;;;;;;14.32;12.90;;;;;;;4.48;100.00;102615.97;5176960;28;20084;-82
2022/03/28 00:37:28;;;;;;;15.45;14.02;;;;;;;4.54;100.00;102639.38;5176641;28;20036;-83
2022/03/28 00:39:59;;;;;;;16.60;13.85;;;;;;;4.36;100.00;102617.34;5181245;28;20049;-79
2022/03/28 00:42:29;;;;;;;16.35;13.52;;;;;;;4.32;100.00;102610.69;5187115;28;20054;-80
2022/03/28 00:45:00;;;;;;;14.77;13.57;;;;;;;4.49;100.00;102627.50;5186691;28;20034;-79
2022/03/28 00:47:31;;;;;;;15.23;13.93;;;;;;;4.50;100.00;102624.66;5187401;28;20027;-80
2022/03/28 00:50:01;;;;;;;16.00;14.07;;;;;;;4.44;100.00;102611.13;5186434;28;20026;-80
2022/03/28 00:52:33;;;;;;;17.63;12.70;;;;;;;4.51;100.00;102620.97;5183516;28;20501;-80
2022/03/28 00:55:06;;;;;;;19.55;14.82;;;;;;;4.47;100.00;102614.31;5192834;28;20050;-81
2022/03/28 00:57:36;;;;;;;15.25;13.73;;;;;;;4.50;100.00;102615.81;5177648;28;20389;-79
2022/03/28 01:00:10;;;;;;;18.23;15.07;;;;;;;4.36;100.00;102599.44;5177895;28;20022;-82
2022/03/28 01:02:41;;;;;;;18.25;15.50;;;;;;;4.34;100.00;102609.47;5176020;28;20409;-81
2022/03/28 01:05:12;;;;;;;16.10;14.35;;;;;;;3.81;100.00;102518.41;5176940;28;20026;-82
2022/03/28 01:07:43;;;;;;;17.10;15.35;;;;;;;4.38;100.00;102613.50;5178164;28;20022;-81
2022/03/28 01:10:14;;;;;;;17.90;16.10;;;;;;;4.39;100.00;102600.94;5176973;28;20034;-82
2022/03/28 01:12:44;;;;;;;15.13;13.82;;;;;;;3.98;100.00;102544.09;5178245;28;20145;-82
2022/03/28 01:15:15;;;;;;;18.67;16.67;;;;;;;4.02;100.00;102559.63;5177814;28;20394;-82
2022/03/28 01:20:56;;;;;;;20.42;18.30;;;;;;;4.15;100.00;102558.25;5171048;23;20019;-80
2022/03/28 01:23:27;;;;;;;16.45;15.00;;;;;;;4.22;100.00;102570.75;5152365;28;20074;-81
2022/03/28 01:25:57;;;;;;;18.23;16.52;;;;;;;4.36;100.00;102590.59;5139268;28;20027;-81
2022/03/28 01:28:28;;;;;;;18.08;16.30;;;;;;;4.34;100.00;102588.09;5137750;28;20030;-80
2022/03/28 01:30:58;;;;;;;19.23;17.20;;;;;;;4.25;100.00;102580.28;5153706;28;20031;-81
2022/03/28 01:33:29;;;;;;;24.00;20.38;;;;;;;4.19;100.00;102586.31;5137679;28;20034;-81
2022/03/28 01:36:00;;;;;;;20.73;17.00;;;;;;;4.06;100.00;102578.81;5136642;28;20050;-81
2022/03/28 01:38:30;;;;;;;17.77;16.17;;;;;;;3.80;100.00;102557.66;5137410;28;20031;-81
2022/03/28 01:41:01;;;;;;;15.30;13.95;;;;;;;3.80;100.00;102572.84;5152805;28;20518;-82
2022/03/28 01:43:31;;;;;;;18.60;16.67;;;;;;;3.74;100.00;102579.75;5137456;28;20058;-81
2022/03/28 01:46:02;;;;;;;18.58;16.17;;;;;;;3.71;100.00;102577.41;5138039;28;20059;-81
2022/03/28 01:48:32;;;;;;;19.67;17.88;;;;;;;3.49;100.00;102538.84;5137186;28;20174;-80
2022/03/28 01:51:02;;;;;;;19.15;17.23;;;;;;;3.76;100.00;102580.38;5137888;28;20514;-81
2022/03/28 01:53:33;;;;;;;18.52;16.77;;;;;;;3.70;100.00;102573.06;5137260;28;20067;-81
2022/03/28 01:56:03;;;;;;;20.25;17.65;;;;;;;3.64;100.00;102549.69;5136558;28;20038;-80
2022/03/28 01:58:34;;;;;;;19.08;17.45;;;;;;;3.81;100.00;102570.03;5152234;28;20027;-79
2022/03/28 02:01:04;;;;;;;16.08;14.55;;;;;;;3.73;100.00;102570.06;5137725;28;20031;-82
2022/03/28 02:03:35;;;;;;;16.92;15.35;;;;;;;3.82;100.00;102571.69;5136979;28;20023;-81
2022/03/28 02:06:06;;;;;;;18.92;17.00;;;;;;;3.87;100.00;102560.50;5137254;28;20083;-81
2022/03/28 02:08:36;;;;;;;20.98;18.80;;;;;;;3.91;100.00;102559.16;5136172;29;20026;-81
2022/03/28 02:11:07;;;;;;;19.05;16.25;;;;;;;3.94;100.00;102556.16;5137246;28;20032;-81
2022/03/28 02:13:38;;;;;;;16.42;15.13;;;;;;;3.96;100.00;102567.50;5136927;28;20019;-81
2022/03/28 02:16:09;;;;;;;24.83;19.00;;;;;;;4.00;100.00;102552.78;5137491;28;20031;-82
2022/03/28 02:18:39;;;;;;;20.98;16.63;;;;;;;4.05;100.00;102543.22;5151174;28;20047;-80
2022/03/28 02:21:10;;;;;;;19.67;17.65;;;;;;;4.04;100.00;102546.09;5136699;28;20031;-81
2022/03/28 02:23:40;;;;;;;17.02;15.38;;;;;;;4.03;100.00;102539.94;5134160;28;20024;-81
2022/03/28 02:26:13;;;;;;;20.15;17.13;;;;;;;4.05;100.00;102545.91;5136004;28;20054;-81
2022/03/28 02:28:44;;;;;;;18.45;16.75;;;;;;;4.02;100.00;102537.41;5134794;28;20023;-81
2022/03/28 02:31:14;;;;;;;17.85;16.20;;;;;;;3.82;100.00;102504.88;5136489;28;20389;-80
2022/03/28 02:33:45;;;;;;;20.50;14.60;;;;;;;4.05;100.00;102542.41;5136510;28;20453;-81
2022/03/28 02:36:16;;;;;;;17.45;15.95;;;;;;;3.90;100.00;102520.06;5136662;28;20027;-80
2022/03/28 02:38:46;;;;;;;21.13;17.65;;;;;;;4.08;100.00;102539.38;5136202;28;20105;-80
2022/03/28 02:41:17;;;;;;;19.63;17.60;;;;;;;3.90;100.00;102512.88;5135411;28;20041;-81
2022/03/28 02:43:49;;;;;;;17.77;16.35;;;;;;;4.02;100.00;102527.56;5135749;28;20062;-81
2022/03/28 02:46:20;;;;;;;17.27;15.50;;;;;;;4.01;100.00;102531.25;5151126;28;20095;-81
2022/03/28 02:48:50;;;;;;;17.30;15.68;;;;;;;3.76;100.00;102502.06;5135418;29;20027;-81
2022/03/28 02:51:21;;;;;;;18.48;17.08;;;;;;;3.73;100.00;102516.63;5151278;28;20038;-82
2022/03/28 02:53:51;;;;;;;19.75;17.85;;;;;;;3.59;100.00;102504.78;5134199;28;20051;-81
2022/03/28 02:56:22;;;;;;;16.50;15.02;;;;;;;3.44;100.00;102494.97;5136748;28;20070;-81
2022/03/28 02:58:52;;;;;;;19.63;17.70;;;;;;;3.18;100.00;102474.59;5135565;28;20027;-81
2022/03/28 03:01:23;;;;;;;18.95;17.35;;;;;;;2.98;100.00;102457.28;5136296;28;20031;-81
2022/03/28 03:03:53;;;;;;;21.38;19.40;;;;;;;3.21;100.00;102505.47;5151592;28;20126;-81
2022/03/28 03:06:24;;;;;;;17.55;15.98;;;;;;;3.17;100.00;102502.31;5135181;29;20019;-81
2022/03/28 03:08:54;;;;;;;18.08;16.33;;;;;;;2.94;100.00;102474.59;5137927;28;20035;-82
2022/03/28 03:11:25;;;;;;;20.63;17.73;;;;;;;3.04;100.00;102492.13;5154525;28;20015;-81
2022/03/28 03:13:56;;;;;;;19.23;17.33;;;;;;;3.13;100.00;102502.81;5139271;28;20506;-81
2022/03/28 03:16:26;;;;;;;18.17;16.63;;;;;;;3.09;100.00;102496.16;5139951;28;20055;-80
2022/03/28 03:18:57;;;;;;;18.20;16.02;;;;;;;2.86;100.00;102469.28;5139455;28;20156;-81
2022/03/28 03:21:27;;;;;;;20.42;18.40;;;;;;;2.98;100.00;102505.31;5154817;28;20035;-80
2022/03/28 03:23:58;;;;;;;17.73;15.73;;;;;;;2.90;100.00;102491.94;5138444;28;20091;-80
2022/03/28 03:26:28;;;;;;;18.48;16.90;;;;;;;2.89;100.00;102487.59;5154955;28;20027;-81
2022/03/28 03:28:59;;;;;;;19.23;17.33;;;;;;;2.85;100.00;102491.63;5140267;28;20071;-80
2022/03/28 03:31:30;;;;;;;22.05;19.48;;;;;;;2.80;100.00;102507.28;5140376;28;20031;-81
2022/03/28 03:34:00;;;;;;;18.92;17.00;;;;;;;2.54;100.00;102473.59;5139233;28;20407;-81
2022/03/28 03:36:31;;;;;;;19.27;17.38;;;;;;;2.68;100.00;102502.25;5140225;28;20499;-81
2022/03/28 03:39:03;;;;;;;19.65;17.70;;;;;;;2.60;100.00;102496.91;5139728;28;20031;-81
2022/03/28 03:41:33;;;;;;;31.73;18.67;;;;;;;2.60;100.00;102488.91;5154946;28;20034;-79
2022/03/28 03:44:05;;;;;;;18.02;16.30;;;;;;;2.46;100.00;102468.22;5138605;28;20363;-79
2022/03/28 03:46:37;;;;;;;20.17;17.90;;;;;;;2.65;100.00;102485.75;5139153;28;20027;-79
2022/03/28 03:49:08;;;;;;;17.92;16.20;;;;;;;2.50;100.00;102458.91;5158869;28;20035;-81
2022/03/28 03:51:39;;;;;;;17.75;16.20;;;;;;;2.50;100.00;102458.06;5141806;29;20027;-79
2022/03/28 03:54:10;;;;;;;19.25;17.17;;;;;;;2.67;100.00;102487.25;5142286;28;20027;-80
2022/03/28 03:56:41;;;;;;;17.42;15.90;;;;;;;2.34;100.00;102426.84;5138226;28;20051;-80
2022/03/28 03:59:11;;;;;;;19.38;17.63;;;;;;;2.43;100.00;102457.88;5138568;29;20023;-80
2022/03/28 04:01:42;;;;;;;17.90;16.55;;;;;;;2.55;100.00;102483.25;5138158;28;20029;-81
2022/03/28 04:04:12;;;;;;;20.30;17.95;;;;;;;2.60;100.00;102480.91;5140529;28;20019;-80
2022/03/28 04:06:43;;;;;;;20.60;18.65;;;;;;;2.39;100.00;102461.88;5156548;28;20391;-80
2022/03/28 04:09:14;;;;;;;21.50;19.45;;;;;;;2.41;100.00;102475.03;5140992;28;20035;-81
2022/03/28 04:11:44;;;;;;;25.75;19.17;;;;;;;2.33;100.00;102470.50;5141158;28;20054;-81
2022/03/28 04:14:15;;;;;;;18.75;16.92;;;;;;;1.95;100.00;102411.44;5137434;28;20034;-81
2022/03/28 04:16:46;;;;;;;21.38;19.35;;;;;;;2.26;100.00;102464.19;5139539;28;20050;-82
2022/03/28 04:19:16;;;;;;;20.00;18.25;;;;;;;2.33;100.00;102484.66;5139334;28;20248;-79
2022/03/28 04:21:48;;;;;;;20.85;18.73;;;;;;;2.07;100.00;102456.44;5139316;28;20027;-80
2022/03/28 04:24:18;;;;;;;21.05;19.33;;;;;;;2.19;100.00;102487.97;5139051;28;20082;-80
2022/03/28 04:26:49;;;;;;;19.27;16.73;;;;;;;2.16;100.00;102477.63;5152511;28;20027;-79
2022/03/28 04:29:19;;;;;;;22.13;19.88;;;;;;;2.06;100.00;102465.41;5153120;28;20031;-80
2022/03/28 04:31:50;;;;;;;22.52;16.10;;;;;;;2.10;100.00;102472.94;5138119;29;20483;-80
2022/03/28 04:34:20;;;;;;;21.85;19.63;;;;;;;2.02;100.00;102471.06;5140434;28;20031;-79
2022/03/28 04:36:51;;;;;;;17.90;16.20;;;;;;;2.11;100.00;102484.44;5144557;29;20078;-80
2022/03/28 04:39:21;;;;;;;22.17;18.77;;;;;;;2.08;100.00;102460.75;5144649;28;20034;-79
2022/03/28 04:41:52;;;;;;;19.02;15.73;;;;;;;2.15;100.00;102475.13;5160628;28;20023;-81
2022/03/28 04:44:22;;;;;;;19.02;16.95;;;;;;;1.95;100.00;102432.75;5137866;28;20100;-80
2022/03/28 04:46:53;;;;;;;20.73;18.42;;;;;;;2.11;100.00;102457.78;5139372;29;20027;-83
2022/03/28 04:49:24;;;;;;;23.38;17.08;;;;;;;2.04;100.00;102450.44;5140835;29;20561;-82
2022/03/28 04:51:54;;;;;;;19.75;17.33;;;;;;;2.10;100.00;102464.09;5140555;28;20098;-82
2022/03/28 04:54:25;;;;;;;18.77;16.98;;;;;;;2.03;100.00;102423.94;5138755;28;20058;-83
2022/03/28 04:56:55;;;;;;;21.85;19.38;;;;;;;2.23;100.00;102448.50;5139036;28;20356;-83
2022/03/28 04:59:28;;;;;;;18.48;16.20;;;;;;;2.31;100.00;102449.34;5138290;29;20019;-83
2022/03/28 05:01:59;;;;;;;21.88;19.08;;;;;;;2.40;100.00;102442.22;5137273;29;20050;-83
2022/03/28 05:04:29;;;;;;;23.02;20.02;;;;;;;2.50;100.00;102437.56;5145591;28;20034;-83
2022/03/28 05:07:00;;;;;;;18.52;17.00;;;;;;;2.58;100.00;102437.59;5157987;28;20066;-82
2022/03/28 05:09:30;;;;;;;20.42;18.65;;;;;;;2.50;100.00;102426.91;5173871;28;20034;-83
2022/03/28 05:12:01;;;;;;;20.73;16.52;;;;;;;2.16;100.00;102376.34;5159181;28;20090;-84
2022/03/28 05:14:31;;;;;;;23.02;20.58;;;;;;;2.55;100.00;102445.91;5158473;28;20359;-83
2022/03/28 05:17:02;;;;;;;19.75;17.75;;;;;;;2.51;100.00;102444.56;5157903;28;20029;-83
2022/03/28 05:19:32;;;;;;;26.42;16.27;;;;;;;2.33;100.00;102395.88;5153761;28;20039;-82
2022/03/28 05:22:03;;;;;;;20.88;17.98;;;;;;;2.75;100.00;102426.91;5156849;28;20027;-84
2022/03/28 05:24:34;;;;;;;26.48;18.52;;;;;;;2.86;100.00;102429.28;5173979;28;20062;-84
2022/03/28 05:27:05;;;;;;;23.73;20.42;;;;;;;2.84;100.00;102391.25;5174778;28;20087;-83
2022/03/28 05:29:35;;;;;;;29.27;22.20;;;;;;;3.10;100.00;102434.59;5160703;28;20090;-83
2022/03/28 05:32:06;;;;;;;36.97;25.02;;;;;;;2.97;100.00;102452.94;5170400;28;20025;-84
2022/03/28 05:34:37;;;;;;;21.58;19.55;;;;;;;2.56;100.00;102374.75;5158280;28;20027;-85
2022/03/28 05:37:13;;;;;;;19.83;17.40;;;;;;;2.69;100.00;102394.56;5173580;28;20026;-82
2022/03/28 05:39:45;;;;;;;26.42;20.73;;;;;;;2.75;100.00;102405.59;5160797;28;20037;-84
2022/03/28 05:42:17;;;;;;;29.95;19.23;;;;;;;2.46;100.00;102366.91;5178771;28;20659;-85
2022/03/28 05:44:47;;;;;;;22.33;20.30;;;;;;;2.63;100.00;102402.41;5163661;28;20029;-85
2022/03/28 05:47:17;;;;;;;25.48;21.20;;;;;;;2.70;100.00;102406.06;5162562;28;20494;-85
2022/03/28 05:49:48;;;;;;;19.90;17.90;;;;;;;2.92;100.00;102441.91;5163094;28;20511;-80
2022/03/28 05:52:18;;;;;;;23.65;18.27;;;;;;;2.87;100.00;102438.94;5165258;28;20026;-84
2022/03/28 05:54:49;;;;;;;23.77;17.17;;;;;;;2.41;100.00;102344.41;5163152;28;20027;-84
2022/03/28 05:57:19;;;;;;;21.23;18.67;;;;;;;2.19;100.00;102311.25;5162805;28;20023;-84
2022/03/28 05:59:51;;;;;;;20.23;18.45;;;;;;;2.83;100.00;102424.25;5177292;28;20140;-84
2022/03/28 06:02:21;;;;;;;23.42;21.13;;;;;;;2.31;100.00;102348.06;5162822;28;20446;-84
2022/03/28 06:04:52;;;;;;;28.40;18.20;;;;;;;2.45;100.00;102385.72;5176892;28;20030;-85
2022/03/28 06:07:22;;;;;;;24.95;18.67;;;;;;;2.96;100.00;102461.94;5161302;28;20046;-84
2022/03/28 06:09:53;;;;;;;26.98;20.23;;;;;;;2.60;100.00;102402.75;5159211;28;20098;-84
2022/03/28 06:12:23;;;;;;;27.42;18.52;;;;;;;2.74;100.00;102406.59;5159716;28;20038;-84
2022/03/28 06:14:54;;;;;;;22.25;20.42;;;;;;;2.70;100.00;102390.91;5159590;28;20397;-84
2022/03/28 06:17:26;;;;;;;21.63;19.77;;;;;;;2.77;100.00;102382.25;5156478;28;20018;-86
2022/03/28 06:19:56;;;;;;;24.45;19.75;;;;;;;2.85;100.00;102387.59;5158300;28;20023;-85
2022/03/28 06:22:27;;;;;;;21.88;19.83;;;;;;;3.30;100.00;102456.41;5157371;28;20038;-86
2022/03/28 06:24:57;;;;;;;23.67;20.42;;;;;;;3.13;100.00;102417.41;5158205;28;20331;-87
2022/03/28 06:27:27;;;;;;;19.92;17.92;;;;;;;3.02;100.00;102373.22;5156583;28;20035;-86
2022/03/28 06:29:59;;;;;;;22.73;20.55;;;;;;;2.91;100.00;102376.22;5159407;28;20062;-86
2022/03/28 06:32:30;;;;;;;24.58;20.23;;;;;;;3.54;100.00;102445.69;5159016;28;20034;-88
2022/03/28 06:35:00;;;;;;;38.17;23.42;;;;;;;2.80;100.00;102313.38;5174384;28;20027;-86
2022/03/28 06:37:31;;;;;;;22.42;18.52;;;;;;;2.85;100.00;102312.88;5160292;28;20019;-86
2022/03/28 06:40:04;;;;;;;23.63;21.42;;;;;;;3.72;100.00;102451.66;5176334;28;20022;-86
2022/03/28 06:42:34;;;;;;;23.38;19.15;;;;;;;3.80;100.00;102447.28;5160032;28;20047;-86
2022/03/28 06:45:05;;;;;;;22.27;20.23;;;;;;;3.47;100.00;102377.09;5160125;28;20030;-82
2022/03/28 06:47:37;;;;;;;29.65;20.23;;;;;;;4.07;100.00;102452.16;5162162;28;20019;-88
2022/03/28 06:50:09;;;;;;;54.53;25.42;;;;;;;4.19;100.00;102439.25;5177323;28;20049;-88
2022/03/28 06:52:40;;;;;;;26.08;21.98;;;;;;;4.37;100.00;102439.81;5142079;29;20027;-85
2022/03/28 06:55:11;;;;;;;28.38;23.35;;;;;;;4.34;100.00;102418.75;5143269;28;20099;-84
2022/03/28 06:57:42;;;;;;;26.38;20.50;;;;;;;4.28;100.00;102393.59;5142383;29;20015;-84
2022/03/28 07:00:16;;;;;;;33.20;20.45;;;;;;;3.96;100.00;102314.44;5158083;28;20031;-84
2022/03/28 07:02:49;;;;;;;32.35;23.38;;;;;;;3.91;100.00;102294.56;5141355;28;20036;-84
2022/03/28 07:05:33;;;;;;;24.83;22.40;;;;;;;4.74;100.00;102431.88;5126094;29;20037;-85
2022/03/28 07:08:08;;;;;;;32.33;23.00;;;;;;;4.96;100.00;102432.03;5141391;29;20093;-86
2022/03/28 07:10:55;;;;;;;26.85;24.35;;;;;;;4.38;100.00;102323.81;5157044;28;20031;-86
2022/03/28 07:13:26;;;;;;;25.77;21.42;;;;;;;4.21;100.00;102263.44;5140320;28;20027;-86
2022/03/28 07:15:56;;;;;;;29.73;20.67;;;;;;;5.08;100.00;102401.13;5155246;28;20094;-86
2022/03/28 07:18:27;;;;;;;25.60;21.67;;;;;;;5.33;100.00;102420.47;5141441;29;20024;-85
2022/03/28 07:23:33;;;;;;;27.52;23.27;;;;;;;5.39;100.00;102417.06;5172712;28;20580;-81
2022/03/28 07:26:04;;;;;;;25.65;20.55;;;;;;;5.55;100.00;102427.59;5190514;28;20033;-83
2022/03/28 07:28:38;;;;;;;23.48;21.05;;;;;;;5.11;100.00;102338.34;5175580;28;20037;-85
2022/03/28 07:31:09;;;;;;;30.05;23.20;;;;;;;5.30;100.00;102365.41;5190175;28;20026;-84
2022/03/28 07:33:40;;;;;;;24.90;22.27;;;;;;;5.61;100.00;102410.78;5189935;28;20025;-84
2022/03/28 07:36:11;;;;;;;34.83;23.20;;;;;;;5.67;100.00;102398.50;5190432;28;20105;-84
2022/03/28 07:38:41;;;;;;;27.05;20.88;;;;;;;5.85;100.00;102414.19;5190037;28;20045;-84
2022/03/28 07:41:12;;;;;;;34.20;23.38;;;;;;;5.85;100.00;102398.94;5172016;28;20029;-84
2022/03/28 07:43:42;;;;;;;26.02;23.45;;;;;;;5.96;100.00;102394.97;5171628;28;20033;-80
2022/03/28 07:46:14;;;;;;;25.40;22.85;;;;;;;6.16;100.00;102411.28;5189673;28;20030;-82
2022/03/28 07:48:44;;;;;;;25.48;22.38;;;;;;;6.23;100.00;102412.19;5188863;28;20101;-84
2022/03/28 07:51:15;;;;;;;28.30;20.55;;;;;;;5.86;100.00;102333.56;5189811;28;20167;-84
2022/03/28 07:53:45;;;;;;;28.70;20.77;;;;;;;6.39;100.00;102410.09;5171703;28;20033;-83
2022/03/28 07:56:15;;;;;;;25.95;22.73;;;;;;;6.14;100.00;102349.78;5193129;28;20033;-84
2022/03/28 07:58:46;;;;;;;23.60;21.25;;;;;;;6.54;100.00;102399.31;5193046;28;20076;-84
2022/03/28 08:01:17;;;;;;;23.90;21.58;;;;;;;6.62;100.00;102401.06;5193029;28;20469;-84
2022/03/28 08:03:48;;;;;;;26.02;21.98;;;;;;;6.49;100.00;102355.28;5193127;28;20040;-83
2022/03/28 08:06:18;;;;;;;27.02;22.67;;;;;;;6.84;100.00;102394.66;5192904;28;20022;-83
2022/03/28 08:08:49;;;;;;;24.90;21.35;;;;;;;6.90;100.00;102387.69;5193097;28;20026;-83
2022/03/28 08:11:19;;;;;;;27.05;24.38;;;;;;;7.14;100.00;102391.78;5175210;28;20028;-83
2022/03/28 08:13:50;;;;;;;33.58;24.95;;;;;;;7.19;100.00;102360.63;5192794;28;20021;-84
2022/03/28 08:16:20;;;;;;;26.40;23.60;;;;;;;7.53;100.00;102396.56;5177375;28;20021;-83
2022/03/28 08:18:51;;;;;;;26.95;24.52;;;;;;;7.53;100.00;102345.47;5174880;28;20015;-83
2022/03/28 08:21:21;;;;;;;30.17;24.95;;;;;;;7.83;100.00;102351.41;5175067;28;20033;-84
2022/03/28 08:23:52;;;;;;;24.42;22.42;;;;;;;8.12;100.00;102372.59;5192514;28;20330;-83
2022/03/28 08:26:23;;;;;;;25.70;21.67;;;;;;;8.12;100.00;102348.41;5174832;28;20026;-84
2022/03/28 08:28:54;;;;;;;29.55;21.58;;;;;;;8.55;100.00;102362.38;5192081;28;20022;-82
2022/03/28 08:31:24;;;;;;;25.90;23.35;;;;;;;8.68;100.00;102357.00;5175696;28;20389;-84
2022/03/28 08:33:55;;;;;;;35.63;24.80;;;;;;;8.89;100.00;102353.28;5192607;28;20062;-84
2022/03/28 08:36:25;;;;;;;34.80;24.40;;;;;;;9.00;100.00;102338.31;5172085;28;20561;-81
2022/03/28 08:38:56;;;;;;;35.35;26.27;;;;;;;9.15;100.00;102325.47;5172690;28;20072;-83
2022/03/28 08:41:27;;;;;;;31.25;27.90;;;;;;;9.59;100.00;102358.94;5172095;28;20026;-82
2022/03/28 08:43:58;;;;;;;30.73;27.50;;;;;;;9.76;100.00;102357.44;5172086;28;20089;-81
2022/03/28 08:46:30;;;;;;;39.83;26.15;;;;;;;9.89;100.00;102348.44;5171454;28;20061;-83
2022/03/28 08:49:00;;;;;;;36.95;25.48;;;;;;;10.06;100.00;102339.63;5169061;28;20033;-82
2022/03/28 08:51:30;;;;;;;30.25;25.27;;;;;;;9.99;100.00;102328.03;5169222;28;20387;-84
2022/03/28 08:54:02;;;;;;;28.55;25.60;;;;;;;10.11;100.00;102330.84;5170817;28;20033;-84
2022/03/28 08:56:32;;;;;;;25.83;23.33;;;;;;;10.26;100.00;102306.31;5169499;28;20445;-81
2022/03/28 08:59:04;;;;;;;29.42;23.33;;;;;;;10.66;100.00;102345.50;5171078;28;20026;-83
2022/03/28 09:01:36;;;;;;;27.88;23.67;;;;;;;10.73;100.00;102313.81;5170594;28;20022;-82
2022/03/28 09:04:08;;;;;;;30.00;25.33;;;;;;;11.06;100.00;102328.91;5170929;28;20030;-82
2022/03/28 09:06:43;;;;;;;25.00;21.50;;;;;;;11.23;100.00;102338.09;5186370;28;20090;-84
2022/03/28 09:09:24;;;;;;;36.55;24.83;;;;;;;11.48;100.00;102341.56;5172030;28;20082;-83
2022/03/28 09:12:05;;;;;;;33.38;26.15;;;;;;;11.70;100.00;102331.09;5171819;28;20089;-81
2022/03/28 09:14:37;;;;;;;24.38;21.98;;;;;;;11.89;100.00;102329.19;5170996;28;20026;-81
2022/03/28 09:17:15;;;;;;;32.78;24.35;;;;;;;11.99;100.00;102326.78;5168888;28;20019;-83
2022/03/28 09:19:49;;;;;;;28.15;23.00;;;;;;;12.00;100.00;102290.53;5171322;28;20357;-84
2022/03/28 09:22:24;;;;;;;24.23;22.02;;;;;;;12.42;100.00;102320.28;5171643;28;20038;-83
2022/03/28 09:25:16;;;;;;;25.95;22.48;;;;;;;12.30;100.00;102281.53;5171538;28;20022;-83
2022/03/28 09:27:49;;;;;;;26.02;23.30;;;;;;;12.61;100.00;102286.63;5154746;28;20041;-83
2022/03/28 09:30:20;;;;;;;25.90;21.70;;;;;;;12.79;100.00;102318.22;5172378;28;20489;-83
2022/03/28 09:32:52;;;;;;;25.65;23.17;;;;;;;12.59;100.00;102296.88;5155951;28;20054;-82
2022/03/28 09:35:25;;;;;;;26.38;21.10;;;;;;;12.83;100.00;102287.69;5154697;28;20037;-82
2022/03/28 09:38:05;;;;;;;32.55;26.00;;;;;;;13.16;100.00;102297.97;5173972;28;20026;-83
2022/03/28 09:40:39;;;;;;;26.73;23.03;;;;;;;13.48;100.00;102313.84;5170794;28;20088;-83
2022/03/28 09:43:20;;;;;;;25.33;21.30;;;;;;;13.54;100.00;102314.75;5155312;28;20277;-83
2022/03/28 09:45:53;;;;;;;22.08;19.92;;;;;;;13.44;100.00;102286.34;5177505;28;20057;-83
2022/03/28 09:48:28;;;;;;;23.45;21.08;;;;;;;13.67;100.00;102309.88;5174498;28;20027;-83
2022/03/28 09:51:04;;;;;;;29.23;21.65;;;;;;;13.46;100.00;102281.50;5172720;28;20487;-83
2022/03/28 09:53:38;;;;;;;28.52;19.42;;;;;;;13.59;100.00;102295.84;5154312;28;20030;-84
2022/03/28 09:56:11;;;;;;;28.63;20.92;;;;;;;13.80;100.00;102287.06;5172159;28;20026;-83
2022/03/28 09:58:47;;;;;;;24.08;21.10;;;;;;;14.01;100.00;102286.34;5154181;28;20211;-84
2022/03/28 10:01:22;;;;;;;23.17;21.02;;;;;;;14.16;100.00;102280.34;5171273;28;20037;-82
2022/03/28 10:04:03;;;;;;;22.80;20.33;;;;;;;13.95;100.00;102235.72;5171153;28;20110;-85
2022/03/28 10:10:01;;;;;;;22.02;19.92;;;;;;;14.11;100.00;102272.13;5171616;28;20528;-80
2022/03/28 10:12:31;;;;;;;20.15;18.13;;;;;;;14.16;100.00;102274.91;5171625;28;20061;-83
2022/03/28 10:15:03;;;;;;;21.48;19.25;;;;;;;14.47;100.00;102265.41;5171207;28;20031;-84
2022/03/28 10:17:33;;;;;;;23.65;19.25;;;;;;;14.32;100.00;102224.38;5170983;28;20117;-84
2022/03/28 10:20:04;;;;;;;22.27;19.25;;;;;;;14.20;100.00;102221.75;5171048;28;20548;-84
2022/03/28 10:22:39;;;;;;;20.50;18.08;;;;;;;14.43;100.00;102251.53;5171409;28;20022;-84
2022/03/28 10:25:18;;;;;;;19.80;17.55;;;;;;;14.53;100.00;102251.66;5171819;28;20030;-84
2022/03/28 10:27:51;;;;;;;24.33;19.83;;;;;;;14.69;100.00;102233.69;5170979;28;20032;-84
2022/03/28 10:30:30;;;;;;;18.50;16.58;;;;;;;14.97;100.00;102246.31;5170782;28;20038;-82
2022/03/28 10:33:21;;;;;;;21.90;16.20;;;;;;;15.18;100.00;102236.53;5171322;28;20097;-84
2022/03/28 10:36:35;;;;;;;24.85;16.50;;;;;;;15.39;100.00;102232.13;5171344;28;20036;-82
2022/03/28 10:39:37;;;;;;;17.80;14.40;;;;;;;15.56;96.90;102235.66;5170927;28;20505;-84
2022/03/28 10:42:17;;;;;;;18.35;16.73;;;;;;;15.51;99.85;102211.88;5171200;28;20041;-84
2022/03/28 10:45:00;;;;;;;20.63;18.55;;;;;;;15.87;98.62;102225.88;5170983;28;20026;-84
2022/03/28 10:47:40;;;;;;;16.40;14.73;;;;;;;16.21;98.46;102232.69;5153140;28;20037;-83
2022/03/28 10:50:12;;;;;;;18.65;15.07;;;;;;;16.21;88.92;102224.53;5171113;28;20054;-81
2022/03/28 10:53:20;;;;;;;24.25;15.45;;;;;;;16.14;83.59;102228.56;5170982;28;20034;-84
2022/03/28 10:55:53;;;;;;;15.77;12.32;;;;;;;16.19;88.03;102223.97;5170817;28;20022;-84
2022/03/28 10:58:35;;;;;;;19.65;15.27;;;;;;;16.51;90.39;102223.94;5171089;28;20037;-84
2022/03/28 11:01:05;;;;;;;17.02;13.07;;;;;;;16.54;84.05;102214.41;5172202;28;20029;-84
2022/03/28 11:03:44;;;;;;;18.80;16.02;;;;;;;16.51;83.21;102214.94;5171261;28;20030;-84
2022/03/28 11:06:17;;;;;;;30.85;14.70;;;;;;;16.27;82.89;102200.88;5170182;28;20022;-84
2022/03/28 11:09:08;;;;;;;26.58;14.00;;;;;;;16.53;86.89;102191.75;5190416;23;20053;-62
2022/03/28 11:12:00;;;;;;;15.85;13.68;;;;;;;16.95;88.02;102201.03;5143684;28;20038;-62
2022/03/28 11:14:51;;;;;;;15.88;13.55;;;;;;;17.26;83.00;102196.50;5139638;28;20067;-62
2022/03/28 11:17:24;;;;;;;13.38;12.13;;;;;;;17.08;78.61;102197.78;5124949;28;20034;-63
2022/03/28 11:20:11;;;;;;;16.05;14.55;;;;;;;16.72;80.24;102194.94;5147271;23;20034;-59
2022/03/28 11:23:06;;;;;;;17.15;14.70;;;;;;;16.59;82.15;102206.25;5175723;28;20026;-59
2022/03/28 11:25:44;;;;;;;19.20;15.40;;;;;;;16.83;81.96;102204.78;5182727;28;20073;-58
2022/03/28 11:28:17;;;;;;;16.17;14.43;;;;;;;16.91;81.49;102198.00;5182679;28;20026;-57
2022/03/28 11:31:03;;;;;;;16.02;11.73;;;;;;;17.10;79.52;102184.72;5184642;28;20050;-58
2022/03/28 11:33:39;;;;;;;16.67;14.88;;;;;;;17.34;77.95;102188.59;5186613;28;20045;-58
2022/03/28 11:36:12;;;;;;;14.90;13.50;;;;;;;17.32;78.29;102182.63;5186711;28;20036;-58
2022/03/28 11:38:44;;;;;;;14.48;13.00;;;;;;;17.25;78.76;102182.03;5186685;28;20061;-57
2022/03/28 11:41:16;;;;;;;17.30;14.20;;;;;;;17.45;78.75;102182.09;5186538;28;20030;-58